createdAt,value
2023-04-09T00:01:06.836Z,76
2023-04-09T00:21:12.146Z,78
2023-04-09T00:41:11.121Z,80
2023-04-09T01:01:08.877Z,80
2023-04-09T01:21:08.491Z,79
2023-04-09T01:41:09.940Z,80
2023-04-09T02:01:08.960Z,80
2023-04-09T02:21:08.867Z,80
2023-04-09T02:40:56.068Z,81
2023-04-09T03:00:47.452Z,82
2023-04-09T03:20:47.915Z,84
2023-04-09T03:40:47.336Z,86
2023-04-09T04:01:03.960Z,83
2023-04-09T04:20:46.999Z,84
2023-04-09T04:40:48.437Z,87
2023-04-09T05:01:17.727Z,89
2023-04-09T05:21:13.868Z,87
2023-04-09T05:41:15.271Z,87
2023-04-09T06:01:15.369Z,90
2023-04-09T06:21:10.077Z,92
2023-04-09T06:41:11.856Z,92
2023-04-09T07:01:11.416Z,92
2023-04-09T07:21:17.273Z,90
2023-04-09T07:41:18.401Z,90
2023-04-09T08:01:16.534Z,89
2023-04-09T08:21:07.698Z,90
2023-04-09T08:41:15.388Z,86
2023-04-09T09:01:08.618Z,87
2023-04-09T09:21:08.065Z,84
2023-04-09T09:41:13.052Z,78
2023-04-09T10:01:11.164Z,78
2023-04-09T10:21:13.627Z,78
2023-04-09T10:41:07.491Z,78
2023-04-09T11:01:08.484Z,74
2023-04-09T11:21:08.643Z,73
2023-04-09T11:41:08.537Z,71
2023-04-09T12:01:19.615Z,68
2023-04-09T12:21:08.617Z,69
2023-04-09T12:41:18.619Z,62
2023-04-09T13:01:10.956Z,60
2023-04-09T13:21:18.133Z,60
2023-04-09T13:41:07.690Z,61
2023-04-09T14:01:08.455Z,57
2023-04-09T14:21:11.414Z,56
2023-04-09T14:41:07.195Z,57
2023-04-09T15:01:15.200Z,53
2023-04-09T15:21:07.781Z,54
2023-04-09T15:41:08.371Z,52
2023-04-09T16:01:07.425Z,50
2023-04-09T16:21:06.988Z,51
2023-04-09T16:41:08.324Z,49
2023-04-09T17:01:22.691Z,48
2023-04-09T17:21:11.262Z,48
2023-04-09T17:41:11.714Z,51
2023-04-09T18:01:17.301Z,55
2023-04-09T18:20:46.742Z,55
2023-04-09T18:40:47.708Z,57
2023-04-09T19:00:47.118Z,57
2023-04-09T19:20:46.818Z,59
2023-04-09T19:40:46.638Z,60
2023-04-09T20:00:47.411Z,60
2023-04-09T20:20:51.120Z,62
2023-04-09T20:40:47.240Z,65
2023-04-09T21:00:47.005Z,66
2023-04-09T21:20:49.614Z,68
2023-04-09T21:40:47.222Z,69
2023-04-09T22:00:48.154Z,71
2023-04-09T22:20:49.676Z,71
2023-04-09T22:40:47.230Z,72
2023-04-09T23:00:47.827Z,72
2023-04-09T23:21:15.526Z,74
2023-04-09T23:41:27.030Z,74
